Latest Coastal Weather Observations for Middle Percy Island

IDQ60701

Issued at 5:45 am EST Thursday 17 April 2014 (issued every 10 minutes, with the page automatically refreshed every 10 minutes)

About coastal observations | Map of coastal stations | Coastal observations for QLD | Marine services | Other Formats
Station Details ID: 200001 Name: MIDDLE PERCY ISLAND Lat: -21.66 Lon: 150.27 Height: 208.7 m
Data from the previous 72 hours. | See also: Recent months at Middle Percy Island
Date/Time
EST
Temp

°C
Wind Pressure Rain
since 9am
mm
Weather Cloud Vis
km
Sea
Height
m
Swell
Dir
 
Speed
knots
Gust
knots
hPa Trend Height
m
Period
s
Dir
17/05:30am 22.1 ENE 4 6 1016.9 - 0.0 - - - - - - -
17/05:00am 22.2 E 4 6 1015.7 - 0.0 - - - - - - -
17/04:30am 22.0 NE 3 5 1016.6 - 0.0 - - - - - - -
17/04:00am 21.8 NE 5 6 1015.2 - 0.0 - - - - - - -
17/03:30am 22.1 NE 5 8 1016.2 - 0.0 - - - - - - -
17/03:00am 22.2 NE 6 8 1015.1 - 0.0 - - - - - - -
17/02:30am 22.3 ENE 5 9 1016.3 - 0.0 - - - - - - -
17/02:00am 22.5 ENE 6 8 1015.3 - 0.0 - - - - - - -
17/01:30am 22.5 NE 6 9 1016.6 - 0.0 - - - - - - -
17/01:00am 22.6 NE 6 10 1015.7 - 0.0 - - - - - - -
17/12:30am 22.7 NE 6 9 1017.1 - 0.0 - - - - - - -
17/12:00am 22.7 ENE 5 9 1016.2 - 0.0 - - - - - - -
 
Date/Time
EST
Temp

°C
Wind Pressure Rain
since 9am
mm
Weather Cloud Vis
km
Sea
Height
m
Swell
Dir
 
Speed
knots
Gust
knots
hPa Trend Height
m
Period
s
Dir
16/11:30pm 22.7 NE 7 9 1017.1 - 0.0 - - - - - - -
16/11:00pm 22.5 NE 6 10 1015.9 - 0.0 - - - - - - -
16/10:30pm 22.5 NE 5 7 1017.1 - 0.0 - - - - - - -
16/10:00pm 22.6 ENE 5 9 1016.3 - 0.0 - - - - - - -
16/09:30pm 22.7 ENE 7 10 1017.1 - 0.0 - - - - - - -
16/09:00pm 22.6 NE 7 11 1015.5 - 0.0 - - - - - - -
16/08:30pm 22.9 NE 7 10 1016.8 - 0.0 - - - - - - -
16/08:00pm 22.8 NE 6 10 1015.4 - 0.0 - - - - - - -
16/07:30pm 22.7 ENE 7 11 1016.1 - 0.0 - - - - - - -
16/07:00pm 22.6 NE 6 9 1014.7 - 0.0 - - - - - - -
16/06:30pm 22.7 ENE 5 9 1015.7 - 0.0 - - - - - - -
16/06:00pm 22.6 E 5 7 1014.5 - 0.0 - - - - - - -
16/05:30pm 22.9 E 4 7 1015.6 - 0.0 - - - - - - -
16/05:00pm 23.8 E 3 6 1014.2 - 0.0 - - - - - - -
16/04:30pm 24.3 E 4 7 1014.9 - 0.0 - - - - - - -
16/04:00pm 24.6 ESE 4 8 1013.9 - 0.0 - - - - - - -
16/03:30pm 25.1 E 4 6 1015.0 - 0.0 - - - - - - -
16/03:00pm 24.4 ESE 5 8 1014.0 - 0.0 - - - - - - -
16/02:30pm 24.4 ESE 5 8 1015.2 - 0.0 - - - - - - -
16/02:00pm 25.3 ESE 7 11 1014.3 - 0.0 - - - - - - -
16/01:30pm 25.1 ESE 8 11 1015.5 - 0.0 - - - - - - -
16/01:00pm 24.4 ESE 8 12 1014.7 - 0.0 - - - - - - -
16/12:30pm 24.2 ESE 6 9 1016.1 - 0.0 - - - - - - -
16/12:00pm 24.5 ESE 7 10 1015.4 - 0.0 - - - - - - -
16/11:30am 25.4 ESE 7 11 1016.7 - 0.0 - - - - - - -
16/11:00am 25.4 ESE 8 12 1015.9 - 0.0 - - - - - - -
16/10:30am 25.7 ESE 6 11 1017.3 - 0.0 - - - - - - -
16/10:00am 25.1 ESE 8 11 1016.5 - 0.0 - - - - - - -
16/09:30am 23.9 ESE 9 14 1017.6 - 0.0 - - - - - - -
16/09:00am 24.4 ESE 7 12 1016.4 - 0.0 - - - - - - -
16/08:30am 24.0 ESE 7 12 1017.1 - 0.0 - - - - - - -
16/08:00am 24.1 E 5 10 1016.0 - 0.0 - - - - - - -
16/07:30am 23.9 E 5 9 1017.2 - 0.0 - - - - - - -
16/07:00am 23.2 E 5 8 1015.8 - 0.0 - - - - - - -
16/06:30am 22.3 E 5 7 1016.6 - 0.0 - - - - - - -
16/06:00am 22.1 ESE 5 7 1015.5 - 0.0 - - - - - - -
16/05:30am 22.3 E 5 9 1016.1 - 0.0 - - - - - - -
16/05:00am 22.1 E 5 8 1014.7 - 0.0 - - - - - - -
16/04:30am 22.3 E 6 10 1015.6 - 0.0 - - - - - - -
16/04:00am 22.4 E 5 9 1014.5 - 0.0 - - - - - - -
16/03:30am 22.3 E 5 7 1015.2 - 0.0 - - - - - - -
16/03:00am 22.4 E 4 8 1014.2 - 0.0 - - - - - - -
16/02:30am 22.5 ESE 7 11 1015.4 - 0.0 - - - - - - -
16/02:00am 22.3 ESE 7 11 1014.3 - 0.0 - - - - - - -
16/01:30am 22.3 ESE 6 10 1015.7 - 0.0 - - - - - - -
16/01:00am 22.5 ESE 7 10 1015.0 - 0.0 - - - - - - -
16/12:30am 22.6 E 5 12 1016.2 - 0.0 - - - - - - -
16/12:00am 22.5 E 5 8 1015.3 - 0.0 - - - - - - -
 
Date/Time
EST
Temp

°C
Wind Pressure Rain
since 9am
mm
Weather Cloud Vis
km
Sea
Height
m
Swell
Dir
 
Speed
knots
Gust
knots
hPa Trend Height
m
Period
s
Dir
15/11:30pm 22.6 E 5 9 1016.5 - 0.0 - - - - - - -
15/11:00pm 22.5 E 6 12 1015.3 - 0.0 - - - - - - -
15/10:30pm 22.4 E 6 10 1016.4 - 0.0 - - - - - - -
15/10:00pm 22.4 ESE 8 12 1015.2 - 0.0 - - - - - - -
15/09:30pm 22.5 ESE 11 15 1016.2 - 0.0 - - - - - - -
15/09:00pm 22.5 ESE 13 17 1014.8 - 0.0 - - - - - - -
15/08:30pm 22.5 ESE 12 17 1015.8 - 0.0 - - - - - - -
15/08:00pm 22.4 ESE 13 16 1014.5 - 0.0 - - - - - - -
15/07:30pm 22.4 ESE 12 17 1015.5 - 0.0 - - - - - - -
15/07:00pm 22.4 SSE 11 17 1014.2 - 0.0 - - - - - - -
15/06:30pm 22.3 SSE 11 14 1015.0 - 0.0 - - - - - - -
15/06:00pm 22.3 SE 10 12 1013.9 - 0.0 - - - - - - -
15/05:30pm 22.5 SE 8 12 1014.8 - 0.0 - - - - - - -
15/05:00pm 23.1 SE 9 12 1013.6 - 0.0 - - - - - - -
15/04:30pm 23.8 SSE 10 14 1014.4 - 0.0 - - - - - - -
15/04:00pm 23.4 SE 9 14 1013.2 - 0.0 - - - - - - -
15/03:30pm 23.4 SSE 9 12 1014.0 - 0.0 - - - - - - -
15/03:00pm 24.0 SSE 10 14 1012.9 - 0.0 - - - - - - -
15/02:30pm 24.5 SSE 10 14 1013.9 - 0.0 - - - - - - -
15/02:00pm 25.2 SSE 11 16 1012.7 - 0.0 - - - - - - -
15/01:30pm 24.6 SSE 13 17 1013.7 - 0.0 - - - - - - -
15/01:00pm 25.0 SSE 12 17 1013.2 - 0.0 - - - - - - -
15/12:30pm 24.8 SSE 12 17 1014.3 - 0.0 - - - - - - -
15/12:00pm 25.1 SSE 12 17 1013.8 - 0.0 - - - - - - -
15/11:30am 25.4 SSE 11 16 1015.1 - 0.0 - - - - - - -
15/11:00am 24.6 SE 12 15 1014.5 - 0.0 - - - - - - -
15/10:30am 25.0 SSE 11 15 1015.9 - 0.0 - - - - - - -
15/10:00am 24.4 SSE 12 17 1014.9 - 0.0 - - - - - - -
15/09:30am 24.7 SE 11 16 1016.1 - 0.0 - - - - - - -
15/09:00am 24.4 SSE 10 14 1014.9 - 0.0 - - - - - - -
15/08:30am 23.4 SSE 11 15 1015.9 - 0.0 - - - - - - -
15/08:00am 22.3 SSE 12 19 1014.8 - 0.0 - - - - - - -
15/07:30am 22.7 SSE 10 16 1015.7 - 0.0 - - - - - - -
15/07:00am 22.6 SSE 9 13 1014.5 - 0.0 - - - - - - -
15/06:30am 22.5 SSE 11 18 1015.0 - 0.0 - - - - - - -
15/06:00am 22.6 SE 12 17 1013.7 - 0.0 - - - - - - -
15/05:30am 22.7 SE 12 19 1014.3 - 0.0 - - - - - - -
15/05:00am 22.6 SSE 13 18 1012.8 - 0.0 - - - - - - -
15/04:30am 22.8 SSE 13 17 1013.6 - 0.0 - - - - - - -
15/04:00am 22.5 SSE 12 16 1012.2 - 0.0 - - - - - - -
15/03:30am 22.5 SSE 11 16 1013.3 - 0.0 - - - - - - -
15/03:00am 22.3 SSE 11 15 1012.3 - 0.0 - - - - - - -
15/02:30am 22.4 SSE 10 14 1013.3 - 0.0 - - - - - - -
15/02:00am 22.4 SSE 10 13 1012.5 - 0.0 - - - - - - -
15/01:30am 22.5 SSE 9 14 1013.7 - 0.0 - - - - - - -
15/01:00am 23.0 SSE 12 17 1012.7 - 0.0 - - - - - - -
15/12:30am 22.9 SSE 12 16 1013.8 - 0.0 - - - - - - -
15/12:00am 22.8 SSE 11 15 1012.9 - 0.0 - - - - - - -
 
Date/Time
EST
Temp

°C
Wind Pressure Rain
since 9am
mm
Weather Cloud Vis
km
Sea
Height
m
Swell
Dir
 
Speed
knots
Gust
knots
hPa Trend Height
m
Period
s
Dir
14/11:30pm 22.7 SSE 10 14 1013.9 - 0.0 - - - - - - -
14/11:00pm 22.7 SSE 12 15 1013.0 - 0.0 - - - - - - -
14/10:30pm 23.0 SSE 10 16 1014.0 - 0.0 - - - - - - -
14/10:00pm 23.0 SSE 11 16 1013.1 - 0.0 - - - - - - -
14/09:30pm 23.9 S 7 10 1014.1 - 0.0 - - - - - - -
14/09:00pm 23.9 S 7 10 1012.9 - 0.0 - - - - - - -
14/08:30pm 23.9 SSW 7 9 1013.5 - 0.0 - - - - - - -
14/08:00pm 24.1 SSW 7 10 1012.3 - 0.0 - - - - - - -
14/07:30pm 24.0 SSW 8 11 1013.0 - 0.0 - - - - - - -
14/07:00pm 23.6 SSW 7 12 1011.3 - 0.0 - - - - - - -
14/06:30pm 23.6 SSW 9 13 1011.9 - 0.0 - - - - - - -
14/06:00pm 23.7 SW 9 12 1010.4 - 0.0 - - - - - - -
14/05:30pm 23.9 SW 10 14 1011.3 - 0.0 - - - - - - -
14/05:00pm 24.3 SW 11 16 1009.9 - 0.0 - - - - - - -
14/04:30pm 24.5 SSW 11 16 1010.6 - 0.0 - - - - - - -
14/04:00pm 24.7 SSW 11 16 1009.3 - 0.0 - - - - - - -
14/03:30pm 24.5 SSW 11 17 1009.9 - 0.0 - - - - - - -
14/03:00pm 25.0 SSW 16 20 1008.5 - 0.0 - - - - - - -
14/02:30pm 24.8 SSW 13 17 1009.5 - 0.0 - - - - - - -
14/02:00pm 24.5 SSW 12 17 1008.8 - 0.0 - - - - - - -
14/01:30pm 24.5 SSW 12 18 1009.7 - 0.0 - - - - - - -
14/01:00pm 23.8 SSW 13 17 1008.7 - 0.0 - - - - - - -
14/12:30pm 23.0 SSW 14 21 1009.9 - 0.0 - - - - - - -
14/12:00pm 23.1 SSW 16 23 1008.9 - 0.0 - - - - - - -
14/11:30am 22.7 SSW 18 24 1010.0 - 0.0 - - - - - - -
14/11:00am 22.4 SSW 16 24 1009.3 - 0.0 - - - - - - -
14/10:30am 21.8 SSW 17 25 1010.4 - 0.0 - - - - - - -
14/10:00am 22.1 SSW 19 26 1009.1 - 0.0 - - - - - - -
14/09:30am 21.4 SSW 18 26 1010.0 - 0.0 - - - - - - -
14/09:00am 20.9 SSW 19 25 1008.6 - 73.6 - - - - - - -
14/08:32am 21.5 S 25 36 1009.1 - 73.6 - - - - - - -
14/08:30am 21.8 S 26 36 1008.9 - 73.6 - - - - - - -
14/08:02am 21.6 S 25 38 1008.5 - 73.6 - - - - - - -
14/08:00am 21.7 S 25 32 1007.2 - 73.6 - - - - - - -
14/07:30am 21.2 S 28 40 1007.9 - 73.4 - - - - - - -
14/07:08am 22.2 S 31 42 1006.9 - 73.2 - - - - - - -
14/07:00am 22.5 S 32 42 1005.9 - 73.0 - - - - - - -
14/06:38am 22.4 S 30 41 1006.0 - 73.0 - - - - - - -
14/06:30am 22.2 S 28 37 1005.7 - 73.0 - - - - - - -
14/06:20am 21.7 S 26 36 1005.5 - 73.0 - - - - - - -
14/06:00am 21.8 S 29 38 1003.6 - 73.0 - - - - - - -

Other Formats:

Comma delimited format used in spreadsheet applications
http://www.bom.gov.au/fwo/IDQ60701/IDQ60701.94372.axf

JavaScript Object Notation format (JSON) in row-major order
http://www.bom.gov.au/fwo/IDQ60701/IDQ60701.94372.json